sensor_id;sensor_type;location;lat;lon;timestamp;P1;durP1;ratioP1;P2;durP2;ratioP2
80384;SDS011;69702;44.618;33.604;2023-07-22T00:01:10;26.38;;;18.70;;
80384;SDS011;69702;44.618;33.604;2023-07-22T00:03:36;22.67;;;17.47;;
80384;SDS011;69702;44.618;33.604;2023-07-22T00:06:03;24.95;;;18.17;;
80384;SDS011;69702;44.618;33.604;2023-07-22T00:08:36;25.00;;;18.67;;
80384;SDS011;69702;44.618;33.604;2023-07-22T00:11:04;23.33;;;18.08;;
80384;SDS011;69702;44.618;33.604;2023-07-22T00:13:31;22.10;;;18.27;;
80384;SDS011;69702;44.618;33.604;2023-07-22T00:15:58;23.83;;;17.47;;
80384;SDS011;69702;44.618;33.604;2023-07-22T00:18:30;24.77;;;17.77;;
80384;SDS011;69702;44.618;33.604;2023-07-22T00:20:57;21.63;;;17.10;;
80384;SDS011;69702;44.618;33.604;2023-07-22T00:23:23;21.35;;;16.45;;
80384;SDS011;69702;44.618;33.604;2023-07-22T00:25:49;20.25;;;15.77;;
80384;SDS011;69702;44.618;33.604;2023-07-22T00:28:16;20.33;;;16.08;;
80384;SDS011;69702;44.618;33.604;2023-07-22T00:30:42;21.65;;;17.40;;
80384;SDS011;69702;44.618;33.604;2023-07-22T00:33:08;20.20;;;16.30;;
80384;SDS011;69702;44.618;33.604;2023-07-22T00:35:34;20.80;;;15.95;;
80384;SDS011;69702;44.618;33.604;2023-07-22T00:38:01;20.75;;;16.90;;
80384;SDS011;69702;44.618;33.604;2023-07-22T00:40:27;20.80;;;16.20;;
80384;SDS011;69702;44.618;33.604;2023-07-22T00:42:56;19.30;;;15.90;;
80384;SDS011;69702;44.618;33.604;2023-07-22T00:45:22;19.00;;;14.90;;
80384;SDS011;69702;44.618;33.604;2023-07-22T00:47:48;19.08;;;14.80;;
80384;SDS011;69702;44.618;33.604;2023-07-22T00:50:14;19.13;;;14.00;;
80384;SDS011;69702;44.618;33.604;2023-07-22T00:52:40;18.85;;;14.82;;
80384;SDS011;69702;44.618;33.604;2023-07-22T00:55:06;18.13;;;14.07;;
80384;SDS011;69702;44.618;33.604;2023-07-22T00:57:36;18.83;;;14.05;;
80384;SDS011;69702;44.618;33.604;2023-07-22T01:00:04;19.77;;;14.48;;
80384;SDS011;69702;44.618;33.604;2023-07-22T01:02:35;18.23;;;14.20;;
80384;SDS011;69702;44.618;33.604;2023-07-22T01:05:01;18.42;;;14.93;;
80384;SDS011;69702;44.618;33.604;2023-07-22T01:07:32;18.10;;;14.77;;
80384;SDS011;69702;44.618;33.604;2023-07-22T01:09:59;20.67;;;13.75;;
80384;SDS011;69702;44.618;33.604;2023-07-22T01:12:27;17.35;;;13.80;;
80384;SDS011;69702;44.618;33.604;2023-07-22T01:14:54;17.87;;;13.23;;
80384;SDS011;69702;44.618;33.604;2023-07-22T01:17:20;17.10;;;13.68;;
80384;SDS011;69702;44.618;33.604;2023-07-22T01:19:46;19.00;;;15.70;;
80384;SDS011;69702;44.618;33.604;2023-07-22T01:22:13;28.25;;;19.25;;
80384;SDS011;69702;44.618;33.604;2023-07-22T01:24:40;24.70;;;19.35;;
80384;SDS011;69702;44.618;33.604;2023-07-22T01:27:08;25.67;;;19.70;;
80384;SDS011;69702;44.618;33.604;2023-07-22T01:29:36;34.25;;;21.05;;
80384;SDS011;69702;44.618;33.604;2023-07-22T01:32:03;26.02;;;20.58;;
80384;SDS011;69702;44.618;33.604;2023-07-22T01:34:30;24.88;;;21.27;;
80384;SDS011;69702;44.618;33.604;2023-07-22T01:36:58;24.63;;;21.15;;
80384;SDS011;69702;44.618;33.604;2023-07-22T01:39:26;27.80;;;21.23;;
80384;SDS011;69702;44.618;33.604;2023-07-22T01:41:53;27.85;;;21.85;;
80384;SDS011;69702;44.618;33.604;2023-07-22T01:44:19;28.02;;;22.85;;
80384;SDS011;69702;44.618;33.604;2023-07-22T01:46:45;30.60;;;23.25;;
80384;SDS011;69702;44.618;33.604;2023-07-22T01:49:12;29.15;;;22.65;;
80384;SDS011;69702;44.618;33.604;2023-07-22T01:51:39;27.83;;;21.27;;
80384;SDS011;69702;44.618;33.604;2023-07-22T01:54:10;27.42;;;21.33;;
80384;SDS011;69702;44.618;33.604;2023-07-22T01:56:36;28.65;;;22.35;;
80384;SDS011;69702;44.618;33.604;2023-07-22T01:59:02;28.33;;;21.60;;
80384;SDS011;69702;44.618;33.604;2023-07-22T02:01:29;25.30;;;20.90;;
80384;SDS011;69702;44.618;33.604;2023-07-22T02:03:55;30.00;;;24.43;;
80384;SDS011;69702;44.618;33.604;2023-07-22T02:06:22;36.03;;;28.45;;
80384;SDS011;69702;44.618;33.604;2023-07-22T02:08:49;30.70;;;25.17;;
80384;SDS011;69702;44.618;33.604;2023-07-22T02:11:17;28.50;;;22.05;;
80384;SDS011;69702;44.618;33.604;2023-07-22T02:13:44;25.20;;;21.25;;
80384;SDS011;69702;44.618;33.604;2023-07-22T02:16:12;24.90;;;19.70;;
80384;SDS011;69702;44.618;33.604;2023-07-22T02:18:39;27.30;;;21.67;;
80384;SDS011;69702;44.618;33.604;2023-07-22T02:21:06;32.88;;;27.15;;
80384;SDS011;69702;44.618;33.604;2023-07-22T02:23:33;35.45;;;30.98;;
80384;SDS011;69702;44.618;33.604;2023-07-22T02:25:59;34.05;;;29.85;;
80384;SDS011;69702;44.618;33.604;2023-07-22T02:28:27;33.43;;;26.50;;
80384;SDS011;69702;44.618;33.604;2023-07-22T02:30:53;34.50;;;27.73;;
80384;SDS011;69702;44.618;33.604;2023-07-22T02:33:21;29.77;;;25.05;;
80384;SDS011;69702;44.618;33.604;2023-07-22T02:35:48;29.67;;;26.45;;
80384;SDS011;69702;44.618;33.604;2023-07-22T02:38:15;28.27;;;25.23;;
80384;SDS011;69702;44.618;33.604;2023-07-22T02:40:41;29.67;;;25.70;;
80384;SDS011;69702;44.618;33.604;2023-07-22T02:43:09;26.80;;;23.67;;
80384;SDS011;69702;44.618;33.604;2023-07-22T02:45:36;25.95;;;22.58;;
80384;SDS011;69702;44.618;33.604;2023-07-22T02:48:02;25.80;;;21.83;;
80384;SDS011;69702;44.618;33.604;2023-07-22T02:50:30;25.25;;;22.13;;
80384;SDS011;69702;44.618;33.604;2023-07-22T02:52:56;24.27;;;21.23;;
80384;SDS011;69702;44.618;33.604;2023-07-22T02:55:22;25.33;;;21.45;;
80384;SDS011;69702;44.618;33.604;2023-07-22T02:57:49;26.42;;;21.70;;
80384;SDS011;69702;44.618;33.604;2023-07-22T03:00:17;22.13;;;18.38;;
80384;SDS011;69702;44.618;33.604;2023-07-22T03:02:51;20.98;;;16.85;;
80384;SDS011;69702;44.618;33.604;2023-07-22T03:05:18;19.47;;;17.17;;
80384;SDS011;69702;44.618;33.604;2023-07-22T03:07:45;20.13;;;16.25;;
80384;SDS011;69702;44.618;33.604;2023-07-22T03:10:11;21.15;;;15.63;;
80384;SDS011;69702;44.618;33.604;2023-07-22T03:12:38;20.42;;;17.48;;
80384;SDS011;69702;44.618;33.604;2023-07-22T03:15:08;18.83;;;16.83;;
80384;SDS011;69702;44.618;33.604;2023-07-22T03:17:35;21.58;;;17.67;;
80384;SDS011;69702;44.618;33.604;2023-07-22T03:20:02;22.92;;;17.50;;
80384;SDS011;69702;44.618;33.604;2023-07-22T03:22:36;23.38;;;19.38;;
80384;SDS011;69702;44.618;33.604;2023-07-22T03:25:02;27.25;;;22.83;;
80384;SDS011;69702;44.618;33.604;2023-07-22T03:27:31;36.63;;;28.63;;
80384;SDS011;69702;44.618;33.604;2023-07-22T03:29:57;29.45;;;24.75;;
80384;SDS011;69702;44.618;33.604;2023-07-22T03:32:23;32.88;;;27.05;;
80384;SDS011;69702;44.618;33.604;2023-07-22T03:34:49;34.33;;;29.10;;
80384;SDS011;69702;44.618;33.604;2023-07-22T03:37:15;38.80;;;34.60;;
80384;SDS011;69702;44.618;33.604;2023-07-22T03:39:41;39.50;;;33.58;;
80384;SDS011;69702;44.618;33.604;2023-07-22T03:42:07;35.78;;;31.30;;
80384;SDS011;69702;44.618;33.604;2023-07-22T03:44:33;33.70;;;30.05;;
80384;SDS011;69702;44.618;33.604;2023-07-22T03:46:59;27.08;;;24.17;;
80384;SDS011;69702;44.618;33.604;2023-07-22T03:49:25;20.07;;;17.20;;
80384;SDS011;69702;44.618;33.604;2023-07-22T03:51:51;18.50;;;14.90;;
80384;SDS011;69702;44.618;33.604;2023-07-22T03:54:18;20.38;;;14.98;;
80384;SDS011;69702;44.618;33.604;2023-07-22T03:56:44;20.23;;;15.80;;
80384;SDS011;69702;44.618;33.604;2023-07-22T03:59:10;26.80;;;20.55;;
80384;SDS011;69702;44.618;33.604;2023-07-22T04:01:36;26.20;;;21.40;;
80384;SDS011;69702;44.618;33.604;2023-07-22T04:04:02;33.28;;;24.48;;
80384;SDS011;69702;44.618;33.604;2023-07-22T04:06:29;33.40;;;25.17;;
80384;SDS011;69702;44.618;33.604;2023-07-22T04:08:55;29.55;;;20.23;;
80384;SDS011;69702;44.618;33.604;2023-07-22T04:11:21;34.53;;;26.10;;
80384;SDS011;69702;44.618;33.604;2023-07-22T04:13:47;42.23;;;29.27;;
80384;SDS011;69702;44.618;33.604;2023-07-22T04:16:14;47.20;;;33.67;;
80384;SDS011;69702;44.618;33.604;2023-07-22T04:18:40;38.45;;;27.63;;
80384;SDS011;69702;44.618;33.604;2023-07-22T04:21:06;17.10;;;14.38;;
80384;SDS011;69702;44.618;33.604;2023-07-22T04:23:32;16.77;;;14.03;;
80384;SDS011;69702;44.618;33.604;2023-07-22T04:26:01;21.20;;;17.15;;
80384;SDS011;69702;44.618;33.604;2023-07-22T04:28:28;18.55;;;16.48;;
80384;SDS011;69702;44.618;33.604;2023-07-22T04:30:55;18.95;;;13.98;;
80384;SDS011;69702;44.618;33.604;2023-07-22T04:33:23;18.27;;;14.50;;
80384;SDS011;69702;44.618;33.604;2023-07-22T04:35:52;19.73;;;16.27;;
80384;SDS011;69702;44.618;33.604;2023-07-22T04:38:22;16.17;;;13.32;;
80384;SDS011;69702;44.618;33.604;2023-07-22T04:40:48;19.98;;;14.25;;
80384;SDS011;69702;44.618;33.604;2023-07-22T04:43:15;21.77;;;15.85;;
80384;SDS011;69702;44.618;33.604;2023-07-22T04:45:41;17.10;;;14.18;;
80384;SDS011;69702;44.618;33.604;2023-07-22T04:48:07;16.97;;;13.60;;
80384;SDS011;69702;44.618;33.604;2023-07-22T04:50:33;17.77;;;12.30;;
80384;SDS011;69702;44.618;33.604;2023-07-22T04:52:59;15.35;;;11.75;;
80384;SDS011;69702;44.618;33.604;2023-07-22T04:55:25;13.82;;;10.85;;
80384;SDS011;69702;44.618;33.604;2023-07-22T04:57:51;12.95;;;10.60;;
80384;SDS011;69702;44.618;33.604;2023-07-22T05:00:17;13.00;;;10.80;;
80384;SDS011;69702;44.618;33.604;2023-07-22T05:02:45;12.70;;;9.93;;
80384;SDS011;69702;44.618;33.604;2023-07-22T05:05:15;12.68;;;10.85;;
80384;SDS011;69702;44.618;33.604;2023-07-22T05:07:42;12.05;;;10.00;;
80384;SDS011;69702;44.618;33.604;2023-07-22T05:10:08;14.57;;;11.00;;
80384;SDS011;69702;44.618;33.604;2023-07-22T05:12:38;14.07;;;9.90;;
80384;SDS011;69702;44.618;33.604;2023-07-22T05:15:05;12.57;;;9.48;;
80384;SDS011;69702;44.618;33.604;2023-07-22T05:17:32;14.10;;;8.88;;
80384;SDS011;69702;44.618;33.604;2023-07-22T05:19:58;11.07;;;8.95;;
80384;SDS011;69702;44.618;33.604;2023-07-22T05:22:24;13.05;;;9.20;;
80384;SDS011;69702;44.618;33.604;2023-07-22T05:24:50;9.93;;;8.33;;
80384;SDS011;69702;44.618;33.604;2023-07-22T05:27:17;13.95;;;8.98;;
80384;SDS011;69702;44.618;33.604;2023-07-22T05:29:43;13.88;;;10.75;;
80384;SDS011;69702;44.618;33.604;2023-07-22T05:32:10;12.57;;;9.48;;
80384;SDS011;69702;44.618;33.604;2023-07-22T05:34:36;16.88;;;9.63;;
80384;SDS011;69702;44.618;33.604;2023-07-22T05:37:02;16.20;;;9.70;;
80384;SDS011;69702;44.618;33.604;2023-07-22T05:39:29;18.08;;;9.13;;
80384;SDS011;69702;44.618;33.604;2023-07-22T05:41:55;12.77;;;8.80;;
80384;SDS011;69702;44.618;33.604;2023-07-22T05:44:21;21.55;;;9.63;;
80384;SDS011;69702;44.618;33.604;2023-07-22T05:46:47;17.00;;;9.13;;
80384;SDS011;69702;44.618;33.604;2023-07-22T05:49:13;15.17;;;8.67;;
80384;SDS011;69702;44.618;33.604;2023-07-22T05:51:39;14.50;;;8.32;;
80384;SDS011;69702;44.618;33.604;2023-07-22T05:54:05;14.80;;;9.43;;
80384;SDS011;69702;44.618;33.604;2023-07-22T05:56:31;17.45;;;8.50;;
80384;SDS011;69702;44.618;33.604;2023-07-22T05:58:57;15.83;;;9.27;;
80384;SDS011;69702;44.618;33.604;2023-07-22T06:01:24;10.20;;;8.63;;
80384;SDS011;69702;44.618;33.604;2023-07-22T06:03:50;12.27;;;8.38;;
80384;SDS011;69702;44.618;33.604;2023-07-22T06:06:16;12.23;;;8.73;;
80384;SDS011;69702;44.618;33.604;2023-07-22T06:08:42;10.67;;;8.20;;
80384;SDS011;69702;44.618;33.604;2023-07-22T06:11:08;10.07;;;7.57;;
80384;SDS011;69702;44.618;33.604;2023-07-22T06:13:34;9.88;;;7.15;;
80384;SDS011;69702;44.618;33.604;2023-07-22T06:16:00;9.27;;;7.57;;
80384;SDS011;69702;44.618;33.604;2023-07-22T06:18:27;9.82;;;7.18;;
80384;SDS011;69702;44.618;33.604;2023-07-22T06:20:52;10.97;;;8.00;;
80384;SDS011;69702;44.618;33.604;2023-07-22T06:23:18;9.05;;;7.55;;
80384;SDS011;69702;44.618;33.604;2023-07-22T06:25:44;9.65;;;8.32;;
80384;SDS011;69702;44.618;33.604;2023-07-22T06:28:10;10.23;;;7.50;;
80384;SDS011;69702;44.618;33.604;2023-07-22T06:30:36;13.23;;;9.82;;
80384;SDS011;69702;44.618;33.604;2023-07-22T06:33:03;12.00;;;10.67;;
80384;SDS011;69702;44.618;33.604;2023-07-22T06:35:29;14.63;;;10.75;;
80384;SDS011;69702;44.618;33.604;2023-07-22T06:37:55;11.00;;;9.02;;
80384;SDS011;69702;44.618;33.604;2023-07-22T06:40:21;13.70;;;10.88;;
80384;SDS011;69702;44.618;33.604;2023-07-22T06:42:47;18.13;;;13.13;;
80384;SDS011;69702;44.618;33.604;2023-07-22T06:45:13;16.40;;;12.35;;
80384;SDS011;69702;44.618;33.604;2023-07-22T06:47:38;14.98;;;11.05;;
80384;SDS011;69702;44.618;33.604;2023-07-22T06:50:05;16.92;;;11.05;;
80384;SDS011;69702;44.618;33.604;2023-07-22T06:52:32;17.50;;;11.87;;
80384;SDS011;69702;44.618;33.604;2023-07-22T06:54:58;16.80;;;12.25;;
80384;SDS011;69702;44.618;33.604;2023-07-22T06:57:24;14.68;;;11.55;;
80384;SDS011;69702;44.618;33.604;2023-07-22T06:59:54;13.43;;;10.32;;
80384;SDS011;69702;44.618;33.604;2023-07-22T07:02:20;13.45;;;9.77;;
80384;SDS011;69702;44.618;33.604;2023-07-22T07:04:47;11.70;;;9.90;;
80384;SDS011;69702;44.618;33.604;2023-07-22T07:07:13;12.30;;;9.70;;
80384;SDS011;69702;44.618;33.604;2023-07-22T07:09:39;15.18;;;9.75;;
80384;SDS011;69702;44.618;33.604;2023-07-22T07:12:06;14.00;;;9.30;;
80384;SDS011;69702;44.618;33.604;2023-07-22T07:14:33;15.57;;;10.68;;
80384;SDS011;69702;44.618;33.604;2023-07-22T07:17:00;11.70;;;8.63;;
80384;SDS011;69702;44.618;33.604;2023-07-22T07:19:27;13.85;;;8.98;;
80384;SDS011;69702;44.618;33.604;2023-07-22T07:21:53;13.13;;;9.45;;
80384;SDS011;69702;44.618;33.604;2023-07-22T07:24:19;12.60;;;9.57;;
80384;SDS011;69702;44.618;33.604;2023-07-22T07:26:45;11.85;;;10.45;;
80384;SDS011;69702;44.618;33.604;2023-07-22T07:29:12;11.87;;;8.53;;
80384;SDS011;69702;44.618;33.604;2023-07-22T07:31:38;19.30;;;9.25;;
80384;SDS011;69702;44.618;33.604;2023-07-22T07:34:05;13.77;;;9.98;;
80384;SDS011;69702;44.618;33.604;2023-07-22T07:36:32;10.88;;;9.38;;
80384;SDS011;69702;44.618;33.604;2023-07-22T07:38:59;13.57;;;9.70;;
80384;SDS011;69702;44.618;33.604;2023-07-22T07:41:25;10.53;;;7.60;;
80384;SDS011;69702;44.618;33.604;2023-07-22T07:43:51;10.30;;;9.30;;
80384;SDS011;69702;44.618;33.604;2023-07-22T07:48:49;10.82;;;9.52;;
80384;SDS011;69702;44.618;33.604;2023-07-22T07:51:17;11.38;;;9.20;;
80384;SDS011;69702;44.618;33.604;2023-07-22T07:53:44;9.60;;;8.03;;
80384;SDS011;69702;44.618;33.604;2023-07-22T07:56:10;15.27;;;9.07;;
80384;SDS011;69702;44.618;33.604;2023-07-22T07:58:37;11.45;;;8.57;;
80384;SDS011;69702;44.618;33.604;2023-07-22T08:01:03;11.73;;;9.30;;
80384;SDS011;69702;44.618;33.604;2023-07-22T08:03:30;10.68;;;7.30;;
80384;SDS011;69702;44.618;33.604;2023-07-22T08:05:56;10.83;;;8.30;;
80384;SDS011;69702;44.618;33.604;2023-07-22T08:08:22;13.48;;;7.90;;
80384;SDS011;69702;44.618;33.604;2023-07-22T08:10:58;11.27;;;8.18;;
80384;SDS011;69702;44.618;33.604;2023-07-22T08:13:25;9.40;;;8.40;;
80384;SDS011;69702;44.618;33.604;2023-07-22T08:15:53;10.85;;;8.13;;
80384;SDS011;69702;44.618;33.604;2023-07-22T08:18:19;9.60;;;7.38;;
80384;SDS011;69702;44.618;33.604;2023-07-22T08:20:45;12.93;;;7.53;;
80384;SDS011;69702;44.618;33.604;2023-07-22T08:23:13;10.65;;;7.68;;
80384;SDS011;69702;44.618;33.604;2023-07-22T08:25:40;9.35;;;7.82;;
80384;SDS011;69702;44.618;33.604;2023-07-22T08:28:06;8.07;;;7.10;;
80384;SDS011;69702;44.618;33.604;2023-07-22T08:30:32;8.10;;;7.28;;
80384;SDS011;69702;44.618;33.604;2023-07-22T08:32:58;9.90;;;6.25;;
80384;SDS011;69702;44.618;33.604;2023-07-22T08:35:24;12.20;;;6.78;;
80384;SDS011;69702;44.618;33.604;2023-07-22T08:37:50;8.48;;;7.68;;
80384;SDS011;69702;44.618;33.604;2023-07-22T08:40:16;9.95;;;7.63;;
80384;SDS011;69702;44.618;33.604;2023-07-22T08:42:43;12.02;;;7.60;;
80384;SDS011;69702;44.618;33.604;2023-07-22T08:45:10;10.63;;;6.78;;
80384;SDS011;69702;44.618;33.604;2023-07-22T08:47:38;9.88;;;6.75;;
80384;SDS011;69702;44.618;33.604;2023-07-22T08:50:16;8.00;;;5.32;;
80384;SDS011;69702;44.618;33.604;2023-07-22T08:52:46;11.88;;;6.30;;
80384;SDS011;69702;44.618;33.604;2023-07-22T08:55:12;10.27;;;6.65;;
80384;SDS011;69702;44.618;33.604;2023-07-22T08:57:39;9.07;;;6.85;;
80384;SDS011;69702;44.618;33.604;2023-07-22T09:00:05;9.23;;;5.70;;
80384;SDS011;69702;44.618;33.604;2023-07-22T09:02:33;7.45;;;6.30;;
80384;SDS011;69702;44.618;33.604;2023-07-22T09:05:01;9.75;;;6.72;;
80384;SDS011;69702;44.618;33.604;2023-07-22T09:07:30;8.65;;;6.47;;
80384;SDS011;69702;44.618;33.604;2023-07-22T09:09:56;8.27;;;5.85;;
80384;SDS011;69702;44.618;33.604;2023-07-22T09:12:23;7.25;;;5.50;;
80384;SDS011;69702;44.618;33.604;2023-07-22T09:14:49;11.60;;;6.63;;
80384;SDS011;69702;44.618;33.604;2023-07-22T09:17:15;8.50;;;5.47;;
80384;SDS011;69702;44.618;33.604;2023-07-22T09:19:41;7.20;;;5.35;;
80384;SDS011;69702;44.618;33.604;2023-07-22T09:22:07;8.55;;;5.95;;
80384;SDS011;69702;44.618;33.604;2023-07-22T09:24:33;9.95;;;5.53;;
80384;SDS011;69702;44.618;33.604;2023-07-22T09:26:59;11.55;;;6.35;;
80384;SDS011;69702;44.618;33.604;2023-07-22T09:29:36;8.77;;;5.95;;
80384;SDS011;69702;44.618;33.604;2023-07-22T09:32:03;9.60;;;6.82;;
80384;SDS011;69702;44.618;33.604;2023-07-22T09:34:30;10.98;;;6.95;;
80384;SDS011;69702;44.618;33.604;2023-07-22T09:36:56;11.15;;;7.10;;
80384;SDS011;69702;44.618;33.604;2023-07-22T09:39:23;8.75;;;6.55;;
80384;SDS011;69702;44.618;33.604;2023-07-22T09:41:50;9.17;;;7.47;;
80384;SDS011;69702;44.618;33.604;2023-07-22T09:44:18;9.57;;;6.35;;
80384;SDS011;69702;44.618;33.604;2023-07-22T09:46:48;9.52;;;6.72;;
80384;SDS011;69702;44.618;33.604;2023-07-22T09:49:16;9.85;;;6.20;;
80384;SDS011;69702;44.618;33.604;2023-07-22T09:51:43;9.63;;;6.83;;
80384;SDS011;69702;44.618;33.604;2023-07-22T09:54:10;7.72;;;6.57;;
80384;SDS011;69702;44.618;33.604;2023-07-22T09:56:46;10.30;;;6.28;;
80384;SDS011;69702;44.618;33.604;2023-07-22T09:59:13;9.15;;;7.05;;
80384;SDS011;69702;44.618;33.604;2023-07-22T10:01:40;8.02;;;6.72;;
80384;SDS011;69702;44.618;33.604;2023-07-22T10:04:06;8.73;;;6.70;;
80384;SDS011;69702;44.618;33.604;2023-07-22T10:06:33;9.32;;;6.47;;
80384;SDS011;69702;44.618;33.604;2023-07-22T10:09:03;8.52;;;6.50;;
80384;SDS011;69702;44.618;33.604;2023-07-22T10:11:35;11.70;;;6.78;;
80384;SDS011;69702;44.618;33.604;2023-07-22T10:14:02;10.40;;;6.00;;
80384;SDS011;69702;44.618;33.604;2023-07-22T10:16:33;9.90;;;6.73;;
80384;SDS011;69702;44.618;33.604;2023-07-22T10:19:00;9.85;;;5.95;;
80384;SDS011;69702;44.618;33.604;2023-07-22T10:21:26;8.65;;;6.47;;
80384;SDS011;69702;44.618;33.604;2023-07-22T10:23:54;8.35;;;6.10;;
80384;SDS011;69702;44.618;33.604;2023-07-22T10:26:21;8.52;;;7.00;;
80384;SDS011;69702;44.618;33.604;2023-07-22T10:28:47;8.30;;;6.57;;
80384;SDS011;69702;44.618;33.604;2023-07-22T10:31:14;9.32;;;6.20;;
80384;SDS011;69702;44.618;33.604;2023-07-22T10:33:48;9.68;;;6.00;;
80384;SDS011;69702;44.618;33.604;2023-07-22T10:36:15;9.02;;;5.75;;
80384;SDS011;69702;44.618;33.604;2023-07-22T10:38:41;9.55;;;5.63;;
80384;SDS011;69702;44.618;33.604;2023-07-22T10:41:15;10.30;;;6.27;;
80384;SDS011;69702;44.618;33.604;2023-07-22T10:43:54;10.07;;;6.03;;
80384;SDS011;69702;44.618;33.604;2023-07-22T10:46:31;10.18;;;5.50;;
80384;SDS011;69702;44.618;33.604;2023-07-22T10:49:14;10.05;;;5.90;;
80384;SDS011;69702;44.618;33.604;2023-07-22T10:51:48;9.48;;;5.60;;
80384;SDS011;69702;44.618;33.604;2023-07-22T10:54:30;12.73;;;9.03;;
80384;SDS011;69702;44.618;33.604;2023-07-22T10:57:03;15.75;;;12.05;;
80384;SDS011;69702;44.618;33.604;2023-07-22T10:59:31;10.95;;;7.35;;
80384;SDS011;69702;44.618;33.604;2023-07-22T11:01:59;11.88;;;8.98;;
80384;SDS011;69702;44.618;33.604;2023-07-22T11:04:26;14.45;;;10.43;;
80384;SDS011;69702;44.618;33.604;2023-07-22T11:06:59;13.50;;;8.37;;
80384;SDS011;69702;44.618;33.604;2023-07-22T11:11:55;15.50;;;6.50;;
80384;SDS011;69702;44.618;33.604;2023-07-22T11:16:53;10.20;;;6.18;;
80384;SDS011;69702;44.618;33.604;2023-07-22T11:19:21;9.03;;;6.10;;
80384;SDS011;69702;44.618;33.604;2023-07-22T11:21:49;9.35;;;6.57;;
80384;SDS011;69702;44.618;33.604;2023-07-22T11:24:17;8.88;;;5.95;;
80384;SDS011;69702;44.618;33.604;2023-07-22T11:26:44;12.55;;;6.45;;
80384;SDS011;69702;44.618;33.604;2023-07-22T11:29:14;10.85;;;6.57;;
80384;SDS011;69702;44.618;33.604;2023-07-22T11:31:43;10.50;;;5.93;;
80384;SDS011;69702;44.618;33.604;2023-07-22T11:34:15;10.27;;;5.82;;
80384;SDS011;69702;44.618;33.604;2023-07-22T11:36:43;11.50;;;5.70;;
80384;SDS011;69702;44.618;33.604;2023-07-22T11:39:13;9.27;;;5.72;;
80384;SDS011;69702;44.618;33.604;2023-07-22T11:41:40;8.57;;;5.63;;
80384;SDS011;69702;44.618;33.604;2023-07-22T11:44:08;11.13;;;6.60;;
80384;SDS011;69702;44.618;33.604;2023-07-22T11:46:36;8.10;;;5.80;;
80384;SDS011;69702;44.618;33.604;2023-07-22T11:49:05;9.43;;;5.80;;
80384;SDS011;69702;44.618;33.604;2023-07-22T11:51:32;9.65;;;5.82;;
80384;SDS011;69702;44.618;33.604;2023-07-22T11:53:58;9.02;;;5.03;;
80384;SDS011;69702;44.618;33.604;2023-07-22T11:56:28;8.43;;;6.00;;
80384;SDS011;69702;44.618;33.604;2023-07-22T11:58:55;8.48;;;6.15;;
80384;SDS011;69702;44.618;33.604;2023-07-22T12:01:22;8.38;;;5.15;;
80384;SDS011;69702;44.618;33.604;2023-07-22T12:03:49;10.90;;;5.72;;
80384;SDS011;69702;44.618;33.604;2023-07-22T12:06:20;8.83;;;5.70;;
80384;SDS011;69702;44.618;33.604;2023-07-22T12:08:47;10.07;;;5.82;;
80384;SDS011;69702;44.618;33.604;2023-07-22T12:11:21;12.35;;;5.72;;
80384;SDS011;69702;44.618;33.604;2023-07-22T12:13:49;9.73;;;5.28;;
80384;SDS011;69702;44.618;33.604;2023-07-22T12:16:29;9.02;;;5.30;;
80384;SDS011;69702;44.618;33.604;2023-07-22T12:18:55;10.00;;;6.40;;
80384;SDS011;69702;44.618;33.604;2023-07-22T12:21:21;8.20;;;5.28;;
80384;SDS011;69702;44.618;33.604;2023-07-22T12:23:47;11.05;;;5.75;;
80384;SDS011;69702;44.618;33.604;2023-07-22T12:26:14;11.20;;;6.03;;
80384;SDS011;69702;44.618;33.604;2023-07-22T12:28:40;9.07;;;6.25;;
80384;SDS011;69702;44.618;33.604;2023-07-22T12:31:07;10.37;;;5.87;;
80384;SDS011;69702;44.618;33.604;2023-07-22T12:33:33;8.65;;;5.30;;
80384;SDS011;69702;44.618;33.604;2023-07-22T12:35:59;9.02;;;5.60;;
80384;SDS011;69702;44.618;33.604;2023-07-22T12:38:25;8.43;;;5.68;;
80384;SDS011;69702;44.618;33.604;2023-07-22T12:40:51;8.90;;;5.57;;
80384;SDS011;69702;44.618;33.604;2023-07-22T12:43:17;8.70;;;5.20;;
80384;SDS011;69702;44.618;33.604;2023-07-22T12:45:43;9.18;;;5.32;;
80384;SDS011;69702;44.618;33.604;2023-07-22T12:48:09;10.27;;;5.50;;
80384;SDS011;69702;44.618;33.604;2023-07-22T12:50:35;11.07;;;7.22;;
80384;SDS011;69702;44.618;33.604;2023-07-22T12:53:01;10.43;;;5.20;;
80384;SDS011;69702;44.618;33.604;2023-07-22T12:55:28;10.20;;;5.72;;
80384;SDS011;69702;44.618;33.604;2023-07-22T12:57:55;10.20;;;5.45;;
80384;SDS011;69702;44.618;33.604;2023-07-22T13:00:21;9.43;;;5.35;;
80384;SDS011;69702;44.618;33.604;2023-07-22T13:02:47;11.82;;;6.22;;
80384;SDS011;69702;44.618;33.604;2023-07-22T13:05:13;9.07;;;5.40;;
80384;SDS011;69702;44.618;33.604;2023-07-22T13:07:39;10.70;;;5.88;;
80384;SDS011;69702;44.618;33.604;2023-07-22T13:10:05;10.63;;;5.47;;
80384;SDS011;69702;44.618;33.604;2023-07-22T13:12:39;9.43;;;5.22;;
80384;SDS011;69702;44.618;33.604;2023-07-22T13:15:05;8.00;;;5.63;;
80384;SDS011;69702;44.618;33.604;2023-07-22T13:17:32;6.97;;;5.13;;
80384;SDS011;69702;44.618;33.604;2023-07-22T13:19:58;12.85;;;5.40;;
80384;SDS011;69702;44.618;33.604;2023-07-22T13:22:24;10.68;;;5.65;;
80384;SDS011;69702;44.618;33.604;2023-07-22T13:24:50;8.43;;;5.32;;
80384;SDS011;69702;44.618;33.604;2023-07-22T13:27:16;7.75;;;5.07;;
80384;SDS011;69702;44.618;33.604;2023-07-22T13:29:42;9.57;;;5.33;;
80384;SDS011;69702;44.618;33.604;2023-07-22T13:32:08;8.13;;;5.03;;
80384;SDS011;69702;44.618;33.604;2023-07-22T13:34:35;10.00;;;5.60;;
80384;SDS011;69702;44.618;33.604;2023-07-22T13:37:01;11.38;;;5.32;;
80384;SDS011;69702;44.618;33.604;2023-07-22T13:39:47;13.37;;;5.50;;
80384;SDS011;69702;44.618;33.604;2023-07-22T13:42:14;8.00;;;5.30;;
80384;SDS011;69702;44.618;33.604;2023-07-22T13:44:39;7.80;;;5.18;;
80384;SDS011;69702;44.618;33.604;2023-07-22T13:47:06;10.23;;;5.47;;
80384;SDS011;69702;44.618;33.604;2023-07-22T13:49:32;10.18;;;5.43;;
80384;SDS011;69702;44.618;33.604;2023-07-22T13:51:57;14.07;;;6.13;;
80384;SDS011;69702;44.618;33.604;2023-07-22T13:54:23;9.00;;;5.70;;
80384;SDS011;69702;44.618;33.604;2023-07-22T13:56:49;8.07;;;5.65;;
80384;SDS011;69702;44.618;33.604;2023-07-22T13:59:15;7.68;;;5.57;;
80384;SDS011;69702;44.618;33.604;2023-07-22T14:01:42;9.23;;;5.60;;
80384;SDS011;69702;44.618;33.604;2023-07-22T14:04:09;8.30;;;5.35;;
80384;SDS011;69702;44.618;33.604;2023-07-22T14:06:35;8.77;;;5.10;;
80384;SDS011;69702;44.618;33.604;2023-07-22T14:09:01;7.63;;;5.53;;
80384;SDS011;69702;44.618;33.604;2023-07-22T14:11:27;8.57;;;5.40;;
80384;SDS011;69702;44.618;33.604;2023-07-22T14:13:53;9.85;;;5.45;;
80384;SDS011;69702;44.618;33.604;2023-07-22T14:16:19;8.27;;;5.25;;
80384;SDS011;69702;44.618;33.604;2023-07-22T14:18:45;9.43;;;5.32;;
80384;SDS011;69702;44.618;33.604;2023-07-22T14:21:11;9.45;;;5.72;;
80384;SDS011;69702;44.618;33.604;2023-07-22T14:23:37;10.43;;;6.50;;
80384;SDS011;69702;44.618;33.604;2023-07-22T14:26:03;8.27;;;5.45;;
80384;SDS011;69702;44.618;33.604;2023-07-22T14:28:29;8.75;;;5.18;;